createdAt,value
2022-12-05T00:01:22.072Z,33.60
2022-12-05T00:03:51.462Z,33.37
2022-12-05T00:06:18.760Z,32.87
2022-12-05T00:08:46.553Z,33.43
2022-12-05T00:11:23.175Z,35.17
2022-12-05T00:13:50.489Z,30.30
2022-12-05T00:16:19.606Z,31.03
2022-12-05T00:18:46.814Z,32.63
2022-12-05T00:21:24.689Z,34.63
2022-12-05T00:23:53.169Z,36.57
2022-12-05T00:26:21.045Z,37.63
2022-12-05T00:28:47.941Z,34.27
2022-12-05T00:31:20.675Z,33.97
2022-12-05T00:33:48.531Z,29.90
2022-12-05T00:36:19.041Z,35.77
2022-12-05T00:38:46.002Z,35.33
2022-12-05T00:41:15.687Z,32.87
2022-12-05T00:43:43.024Z,32.90
2022-12-05T00:46:13.960Z,30.40
2022-12-05T00:48:41.256Z,32.73
2022-12-05T00:51:09.395Z,29.60
2022-12-05T00:53:36.829Z,30.27
2022-12-05T00:56:10.019Z,34.63
2022-12-05T00:58:37.796Z,33.80
2022-12-05T01:01:15.984Z,25.97
2022-12-05T01:03:44.254Z,30.43
2022-12-05T01:06:12.152Z,33.43
2022-12-05T01:08:39.203Z,28.87
2022-12-05T01:11:08.051Z,32.60
2022-12-05T01:13:36.093Z,24.70
2022-12-05T01:16:03.284Z,29.83
2022-12-05T01:18:30.275Z,30.17
2022-12-05T01:20:57.371Z,29.93
2022-12-05T01:23:24.192Z,28.07
2022-12-05T01:25:52.648Z,27.70
2022-12-05T01:28:19.596Z,29.17
2022-12-05T01:30:49.331Z,29.27
2022-12-05T01:33:16.646Z,28.90
2022-12-05T01:35:44.112Z,28.07
2022-12-05T01:38:12.827Z,26.83
2022-12-05T01:40:40.523Z,27.70
2022-12-05T01:43:15.243Z,33.53
2022-12-05T01:45:44.507Z,27.53
2022-12-05T01:48:21.823Z,26.03
2022-12-05T01:50:50.838Z,28.10
2022-12-05T01:53:18.413Z,27.77
2022-12-05T01:55:47.951Z,25.60
2022-12-05T01:58:16.369Z,31.77
2022-12-05T02:00:44.008Z,28.83
2022-12-05T02:03:18.221Z,27.57
2022-12-05T02:05:48.513Z,30.73
2022-12-05T02:08:15.775Z,28.03
2022-12-05T02:10:46.576Z,26.03
2022-12-05T02:13:34.503Z,24.47
2022-12-05T02:16:19.714Z,26.83
2022-12-05T02:18:56.367Z,30.37
2022-12-05T02:21:51.874Z,27.73
2022-12-05T02:24:44.009Z,29.13
2022-12-05T02:27:20.134Z,29.43
2022-12-05T02:29:50.046Z,26.43
2022-12-05T02:32:35.368Z,27.07
2022-12-05T02:35:18.250Z,28.83
2022-12-05T02:37:58.813Z,27.73
2022-12-05T02:40:41.662Z,27.53
2022-12-05T02:43:15.509Z,26.67
2022-12-05T02:45:45.190Z,27.07
2022-12-05T02:48:14.199Z,27.10
2022-12-05T02:50:42.521Z,26.63
2022-12-05T02:53:13.220Z,26.00
2022-12-05T02:55:42.179Z,27.20
2022-12-05T02:58:27.992Z,28.93
2022-12-05T03:00:57.380Z,29.93
2022-12-05T03:03:25.492Z,35.33
2022-12-05T03:06:26.653Z,27.03
2022-12-05T03:09:10.737Z,31.33
2022-12-05T03:11:52.390Z,29.27
2022-12-05T03:14:42.327Z,25.83
2022-12-05T03:17:16.308Z,32.20
2022-12-05T03:20:10.912Z,32.17
2022-12-05T03:23:00.446Z,30.23
2022-12-05T03:26:00.048Z,25.27
2022-12-05T03:28:35.653Z,30.40
2022-12-05T03:31:09.449Z,27.30
2022-12-05T03:33:44.567Z,27.80
2022-12-05T03:36:23.209Z,25.93
2022-12-05T03:38:53.253Z,29.17
2022-12-05T03:41:35.984Z,28.93
2022-12-05T03:44:26.047Z,30.83
2022-12-05T03:46:55.715Z,34.33
2022-12-05T03:49:33.478Z,29.40
2022-12-05T03:52:16.040Z,30.10
2022-12-05T03:54:47.253Z,27.23
2022-12-05T03:57:18.362Z,26.93
2022-12-05T03:59:47.115Z,30.67
2022-12-05T04:02:24.822Z,28.17
2022-12-05T04:04:58.637Z,27.20
2022-12-05T04:07:30.176Z,32.47
2022-12-05T04:10:00.356Z,25.17
2022-12-05T04:12:31.282Z,30.67
2022-12-05T04:15:03.902Z,30.03
2022-12-05T04:17:56.571Z,28.10
2022-12-05T04:20:53.528Z,31.03
2022-12-05T04:23:20.798Z,29.43
2022-12-05T04:26:03.286Z,28.63
2022-12-05T04:28:51.710Z,32.70
2022-12-05T04:31:25.187Z,30.10
2022-12-05T04:34:05.312Z,29.60
2022-12-05T04:36:50.372Z,30.87
2022-12-05T04:39:45.407Z,30.83
2022-12-05T04:42:18.269Z,27.10
2022-12-05T04:44:53.857Z,32.57
2022-12-05T04:47:24.856Z,33.57
2022-12-05T04:49:53.930Z,31.77
2022-12-05T04:52:22.510Z,33.87
2022-12-05T04:54:59.192Z,31.43
2022-12-05T04:57:33.539Z,32.17
2022-12-05T05:00:00.817Z,32.37
2022-12-05T05:02:38.193Z,31.10
2022-12-05T05:05:13.972Z,33.47
2022-12-05T05:07:49.300Z,33.90
2022-12-05T05:10:21.808Z,33.27
2022-12-05T05:12:50.473Z,36.30
2022-12-05T05:15:17.273Z,31.20
2022-12-05T05:17:44.029Z,32.37
2022-12-05T05:20:27.238Z,31.07
2022-12-05T05:22:55.993Z,31.33
2022-12-05T05:25:24.235Z,30.73
2022-12-05T05:27:53.093Z,30.87
2022-12-05T05:30:21.628Z,34.23
2022-12-05T05:32:48.979Z,32.33
2022-12-05T05:35:16.137Z,33.30
2022-12-05T05:37:43.032Z,30.00
2022-12-05T05:40:12.126Z,31.13
2022-12-05T05:42:44.036Z,29.77
2022-12-05T05:45:12.052Z,30.80
2022-12-05T05:47:40.387Z,34.83
2022-12-05T05:50:08.443Z,30.73
2022-12-05T05:52:37.294Z,30.73
2022-12-05T05:55:06.221Z,31.67
2022-12-05T05:57:33.052Z,32.40
2022-12-05T06:00:00.130Z,31.23
2022-12-05T06:02:32.620Z,30.47
2022-12-05T06:04:59.423Z,30.10
2022-12-05T06:07:26.458Z,33.77
2022-12-05T06:09:53.324Z,33.10
2022-12-05T06:12:20.100Z,33.80
2022-12-05T06:14:49.932Z,34.17
2022-12-05T06:17:17.331Z,30.93
2022-12-05T06:19:44.108Z,32.33
2022-12-05T06:22:10.969Z,34.30
2022-12-05T06:24:38.344Z,41.57
2022-12-05T06:27:05.309Z,31.50
2022-12-05T06:29:34.108Z,33.47
2022-12-05T06:32:01.738Z,31.27
2022-12-05T06:34:29.254Z,33.47
2022-12-05T06:36:55.955Z,30.33
2022-12-05T06:39:23.138Z,29.90
2022-12-05T06:41:49.928Z,25.80
2022-12-05T06:44:16.814Z,29.83
2022-12-05T06:46:43.587Z,27.33
2022-12-05T06:49:11.040Z,25.13
2022-12-05T06:51:37.808Z,27.83
2022-12-05T06:54:04.972Z,30.70
2022-12-05T06:56:31.729Z,30.53
2022-12-05T06:58:58.462Z,28.10
2022-12-05T07:01:43.803Z,30.10
2022-12-05T07:04:25.317Z,26.60
2022-12-05T07:06:54.398Z,30.13
2022-12-05T07:09:43.963Z,27.53
2022-12-05T07:12:11.749Z,26.40
2022-12-05T07:14:47.713Z,29.70
2022-12-05T07:17:16.280Z,27.20
2022-12-05T07:19:43.144Z,33.07
2022-12-05T07:22:15.512Z,29.03
2022-12-05T07:24:42.872Z,27.63
2022-12-05T07:27:09.665Z,27.43
2022-12-05T07:29:36.456Z,27.27
2022-12-05T07:32:03.576Z,26.67
2022-12-05T07:34:30.556Z,29.10
2022-12-05T07:36:57.380Z,27.13
2022-12-05T07:39:24.187Z,27.40
2022-12-05T07:41:51.110Z,30.27
2022-12-05T07:44:18.173Z,25.77
2022-12-05T07:46:45.317Z,25.90
2022-12-05T07:49:12.143Z,22.63
2022-12-05T07:51:39.082Z,24.73
2022-12-05T07:54:06.892Z,23.97
2022-12-05T07:56:34.255Z,26.17
2022-12-05T07:59:01.761Z,18.97
2022-12-05T08:01:29.935Z,23.87
2022-12-05T08:04:00.514Z,24.40
2022-12-05T08:06:30.261Z,22.07
2022-12-05T08:08:58.044Z,26.00
2022-12-05T08:11:27.611Z,21.97
2022-12-05T08:13:54.705Z,19.57
2022-12-05T08:16:23.999Z,20.73
2022-12-05T08:18:55.843Z,21.60
2022-12-05T08:21:22.679Z,22.40
2022-12-05T08:23:49.649Z,23.73
2022-12-05T08:26:20.480Z,20.73
2022-12-05T08:28:51.725Z,23.13
2022-12-05T08:31:20.411Z,19.57
2022-12-05T08:33:47.245Z,21.53
2022-12-05T08:36:18.379Z,22.47
2022-12-05T08:38:47.098Z,19.33
2022-12-05T08:41:17.894Z,20.90
2022-12-05T08:43:45.351Z,20.87
2022-12-05T08:46:12.593Z,22.10
2022-12-05T08:48:39.352Z,20.13
2022-12-05T08:51:11.514Z,19.07
2022-12-05T08:53:44.036Z,20.07
2022-12-05T08:56:15.339Z,19.70
2022-12-05T08:58:42.486Z,20.00
2022-12-05T09:01:15.324Z,18.00
2022-12-05T09:03:47.565Z,20.93
2022-12-05T09:06:19.562Z,20.60
2022-12-05T09:08:47.019Z,19.97
2022-12-05T09:11:20.141Z,19.37
2022-12-05T09:13:51.556Z,18.63
2022-12-05T09:16:22.679Z,20.27
2022-12-05T09:18:51.338Z,16.37
2022-12-05T09:21:26.233Z,17.37
2022-12-05T09:23:53.919Z,16.80
2022-12-05T09:26:23.507Z,20.47
2022-12-05T09:28:51.815Z,14.53
2022-12-05T09:31:27.041Z,17.33
2022-12-05T09:33:54.711Z,16.53
2022-12-05T09:36:26.815Z,16.73
2022-12-05T09:39:04.416Z,13.10
2022-12-05T09:42:05.029Z,14.47
2022-12-05T09:44:51.354Z,14.10
2022-12-05T09:47:56.353Z,14.93
2022-12-05T09:50:29.891Z,15.07
2022-12-05T09:53:05.709Z,13.93
2022-12-05T09:55:41.982Z,14.83
2022-12-05T09:58:52.125Z,13.47
2022-12-05T10:01:24.140Z,13.80
2022-12-05T10:04:06.522Z,12.90
2022-12-05T10:06:44.125Z,16.03
2022-12-05T10:09:22.831Z,16.87
2022-12-05T10:12:05.342Z,15.20
2022-12-05T10:14:52.620Z,15.30
2022-12-05T10:17:33.547Z,13.30
2022-12-05T10:20:11.939Z,14.60
2022-12-05T10:22:53.287Z,16.80
2022-12-05T10:25:22.763Z,13.27
2022-12-05T10:28:00.017Z,13.27
2022-12-05T10:30:33.602Z,18.37
2022-12-05T10:33:09.671Z,13.57
2022-12-05T10:35:39.318Z,16.67
2022-12-05T10:38:31.339Z,14.10
2022-12-05T10:41:01.483Z,15.20
2022-12-05T10:43:33.359Z,16.70
2022-12-05T10:46:01.123Z,14.07
2022-12-05T10:48:31.445Z,13.13
2022-12-05T10:50:58.755Z,16.20
2022-12-05T10:53:29.170Z,15.80
2022-12-05T10:56:28.762Z,11.77
2022-12-05T10:58:56.569Z,17.50
2022-12-05T11:01:26.246Z,13.47
2022-12-05T11:04:00.637Z,16.27
2022-12-05T11:06:30.515Z,14.83
2022-12-05T11:09:04.704Z,14.37
2022-12-05T11:11:33.687Z,10.63
2022-12-05T11:14:22.137Z,13.20
2022-12-05T11:16:54.824Z,13.37
2022-12-05T11:19:21.591Z,13.03
2022-12-05T11:21:50.123Z,14.53
2022-12-05T11:24:34.070Z,12.57
2022-12-05T11:27:27.381Z,14.70
2022-12-05T11:29:58.949Z,13.40
2022-12-05T11:32:30.358Z,10.67
2022-12-05T11:34:57.330Z,12.20
2022-12-05T11:37:31.519Z,13.20
2022-12-05T11:40:38.487Z,12.87
2022-12-05T11:43:24.042Z,11.20
2022-12-05T11:46:05.845Z,10.93
2022-12-05T11:48:50.499Z,13.87
2022-12-05T11:51:35.666Z,11.67
2022-12-05T11:54:35.557Z,14.43
2022-12-05T11:57:26.828Z,11.27
2022-12-05T12:00:05.507Z,11.47
2022-12-05T12:02:50.333Z,11.17
2022-12-05T12:05:55.058Z,9.93
2022-12-05T12:08:57.008Z,10.70
2022-12-05T12:11:40.084Z,9.93
2022-12-05T12:14:22.089Z,13.67
2022-12-05T12:17:04.337Z,15.20
2022-12-05T12:20:09.794Z,10.43
2022-12-05T12:22:50.832Z,13.30
2022-12-05T12:25:56.715Z,11.77
2022-12-05T12:28:45.854Z,11.83
2022-12-05T12:31:12.711Z,11.40
2022-12-05T12:34:18.698Z,11.83
2022-12-05T12:37:00.571Z,15.83
2022-12-05T12:39:39.666Z,9.77
2022-12-05T12:42:35.222Z,10.97
2022-12-05T12:45:26.956Z,11.23
2022-12-05T12:48:23.199Z,11.40
2022-12-05T12:50:54.082Z,12.37
2022-12-05T12:53:20.887Z,11.73
2022-12-05T12:56:11.600Z,9.33
2022-12-05T12:58:43.677Z,11.17
2022-12-05T13:01:22.553Z,10.60
2022-12-05T13:04:05.869Z,10.20
2022-12-05T13:06:40.949Z,14.30
2022-12-05T13:09:27.022Z,9.80
2022-12-05T13:11:56.397Z,11.17
2022-12-05T13:14:25.880Z,11.03
2022-12-05T13:16:54.715Z,10.73
2022-12-05T13:19:30.583Z,11.63
2022-12-05T13:22:01.422Z,12.00
2022-12-05T13:24:28.874Z,12.13
2022-12-05T13:27:05.141Z,10.40
2022-12-05T13:29:34.916Z,9.33
2022-12-05T13:32:04.404Z,9.07
2022-12-05T13:34:47.148Z,8.90
2022-12-05T13:37:47.308Z,9.23
2022-12-05T13:40:54.290Z,9.73
2022-12-05T13:43:25.752Z,9.17
2022-12-05T13:46:07.779Z,8.70
2022-12-05T13:48:38.661Z,9.53
2022-12-05T13:51:20.838Z,9.57
2022-12-05T13:53:50.375Z,10.63
2022-12-05T13:56:19.877Z,13.33
2022-12-05T13:59:04.723Z,9.67
2022-12-05T14:01:53.818Z,9.90
2022-12-05T14:04:40.957Z,9.97
2022-12-05T14:07:10.730Z,11.10
2022-12-05T14:09:55.199Z,10.50
2022-12-05T14:12:29.773Z,10.33
2022-12-05T14:15:01.608Z,10.47
2022-12-05T14:17:41.296Z,11.20
2022-12-05T14:20:19.974Z,11.30
2022-12-05T14:22:57.898Z,11.53
2022-12-05T14:26:02.112Z,11.07
2022-12-05T14:28:56.694Z,13.57
2022-12-05T14:32:04.401Z,12.20
2022-12-05T14:34:34.948Z,12.97
2022-12-05T14:37:18.769Z,12.43
2022-12-05T14:39:50.169Z,13.33
2022-12-05T14:42:21.806Z,13.43
2022-12-05T14:44:54.931Z,14.23
2022-12-05T14:47:25.626Z,12.00
2022-12-05T14:49:54.598Z,13.13
2022-12-05T14:52:27.094Z,12.47
2022-12-05T14:55:03.333Z,13.13
2022-12-05T14:57:35.053Z,13.00
2022-12-05T15:00:07.158Z,12.57
2022-12-05T15:02:40.231Z,13.30
2022-12-05T15:05:31.382Z,12.30
2022-12-05T15:08:00.176Z,11.80
2022-12-05T15:10:34.960Z,14.10
2022-12-05T15:13:27.814Z,11.00
2022-12-05T15:16:08.428Z,13.33
2022-12-05T15:18:45.849Z,11.67
2022-12-05T15:21:31.511Z,11.27
2022-12-05T15:24:01.371Z,15.67
2022-12-05T15:26:47.727Z,10.77
2022-12-05T15:29:27.050Z,11.63
2022-12-05T15:32:06.385Z,10.77
2022-12-05T15:34:57.898Z,11.67
2022-12-05T15:37:26.249Z,10.83
2022-12-05T15:40:08.404Z,11.27
2022-12-05T15:42:41.468Z,11.27
2022-12-05T15:45:14.842Z,11.93
2022-12-05T15:47:59.491Z,13.20
2022-12-05T15:50:36.083Z,12.37
2022-12-05T15:53:27.339Z,11.53
2022-12-05T15:55:55.471Z,13.80
2022-12-05T15:58:26.196Z,12.97
2022-12-05T16:01:14.741Z,15.20
2022-12-05T16:03:51.041Z,16.73
2022-12-05T16:06:23.705Z,13.77
2022-12-05T16:08:51.862Z,15.13
2022-12-05T16:11:18.823Z,14.37
2022-12-05T16:13:49.464Z,16.17
2022-12-05T16:16:23.057Z,14.70
2022-12-05T16:18:56.847Z,16.20
2022-12-05T16:21:39.257Z,18.17
2022-12-05T16:24:18.011Z,15.50
2022-12-05T16:27:00.650Z,13.67
2022-12-05T16:29:33.016Z,13.90
2022-12-05T16:32:02.983Z,15.70
2022-12-05T16:34:33.413Z,12.10
2022-12-05T16:37:00.988Z,11.87
2022-12-05T16:39:29.122Z,10.00
2022-12-05T16:41:56.364Z,11.63
2022-12-05T16:44:29.015Z,12.00
2022-12-05T16:46:56.801Z,15.13
2022-12-05T16:49:34.447Z,12.47
2022-12-05T16:52:11.720Z,13.27
2022-12-05T16:54:38.624Z,15.43
2022-12-05T16:57:05.947Z,16.40
2022-12-05T16:59:35.612Z,15.13
2022-12-05T17:02:04.743Z,15.30
2022-12-05T17:04:32.000Z,14.73
2022-12-05T17:06:59.136Z,15.53
2022-12-05T17:09:26.023Z,13.37
2022-12-05T17:11:56.036Z,14.80
2022-12-05T17:14:22.839Z,14.97
2022-12-05T17:16:49.751Z,16.43
2022-12-05T17:19:16.545Z,16.10
2022-12-05T17:21:43.737Z,15.37
2022-12-05T17:24:17.587Z,18.53
2022-12-05T17:26:46.341Z,15.03
2022-12-05T17:29:13.396Z,16.27
2022-12-05T17:31:40.602Z,19.90
2022-12-05T17:34:17.230Z,16.80
2022-12-05T17:36:45.845Z,15.53
2022-12-05T17:39:12.900Z,16.97
2022-12-05T17:41:40.422Z,15.40
2022-12-05T17:44:07.845Z,13.87
2022-12-05T17:46:34.975Z,14.33
2022-12-05T17:49:02.533Z,15.23
2022-12-05T17:51:30.556Z,14.33
2022-12-05T17:53:57.677Z,15.43
2022-12-05T17:56:24.814Z,19.43
2022-12-05T17:58:51.937Z,19.17
2022-12-05T18:01:20.067Z,19.00
2022-12-05T18:03:48.507Z,21.10
2022-12-05T18:06:16.055Z,21.40
2022-12-05T18:08:45.462Z,25.83
2022-12-05T18:11:15.860Z,19.40
2022-12-05T18:13:43.220Z,19.57
2022-12-05T18:16:10.418Z,24.00
2022-12-05T18:18:37.333Z,21.83
2022-12-05T18:21:14.275Z,21.07
2022-12-05T18:23:42.133Z,29.13
2022-12-05T18:26:11.494Z,24.67
2022-12-05T18:28:39.446Z,24.37
2022-12-05T18:31:15.469Z,20.07
2022-12-05T18:33:44.201Z,19.33
2022-12-05T18:36:15.594Z,19.13
2022-12-05T18:38:45.534Z,15.90
2022-12-05T18:41:13.040Z,13.57
2022-12-05T18:43:40.416Z,14.37
2022-12-05T18:46:07.735Z,15.70
2022-12-05T18:48:40.826Z,16.27
2022-12-05T18:51:13.549Z,17.10
2022-12-05T18:53:41.368Z,15.47
2022-12-05T18:56:26.835Z,18.40
2022-12-05T18:58:55.232Z,17.50
2022-12-05T19:01:22.491Z,15.73
2022-12-05T19:03:50.489Z,16.63
2022-12-05T19:06:23.514Z,14.00
2022-12-05T19:08:57.404Z,14.77
2022-12-05T19:11:28.528Z,13.83
2022-12-05T19:13:57.059Z,14.33
2022-12-05T19:16:25.299Z,16.30
2022-12-05T19:18:57.841Z,14.53
2022-12-05T19:21:25.849Z,14.07
2022-12-05T19:23:53.127Z,13.40
2022-12-05T19:26:20.462Z,16.70
2022-12-05T19:28:48.086Z,14.63
2022-12-05T19:31:17.831Z,13.30
2022-12-05T19:33:48.126Z,13.30
2022-12-05T19:36:18.073Z,14.87
2022-12-05T19:38:46.844Z,12.53
2022-12-05T19:41:16.207Z,13.37
2022-12-05T19:43:44.885Z,13.27
2022-12-05T19:46:16.071Z,12.27
2022-12-05T19:48:43.731Z,12.07
2022-12-05T19:51:12.057Z,12.60
2022-12-05T19:53:41.361Z,14.27
2022-12-05T19:56:21.679Z,12.40
2022-12-05T19:58:50.371Z,11.90
2022-12-05T20:01:20.462Z,10.03
2022-12-05T20:03:51.153Z,8.73
2022-12-05T20:06:19.480Z,11.83
2022-12-05T20:08:47.432Z,12.53
2022-12-05T20:11:18.528Z,9.23
2022-12-05T20:13:47.344Z,11.37
2022-12-05T20:16:18.871Z,11.40
2022-12-05T20:18:46.463Z,11.60
2022-12-05T20:21:19.551Z,11.70
2022-12-05T20:23:47.012Z,12.00
2022-12-05T20:26:16.897Z,10.40
2022-12-05T20:28:44.355Z,11.33
2022-12-05T20:31:16.575Z,9.30
2022-12-05T20:33:44.326Z,11.43
2022-12-05T20:36:23.813Z,14.10
2022-12-05T20:39:02.071Z,10.83
2022-12-05T20:41:29.029Z,11.33
2022-12-05T20:43:59.613Z,11.63
2022-12-05T20:46:28.242Z,12.13
2022-12-05T20:48:56.641Z,11.50
2022-12-05T20:51:26.905Z,12.50
2022-12-05T20:53:54.052Z,11.00
2022-12-05T20:56:28.485Z,11.33
2022-12-05T20:58:58.116Z,12.43
2022-12-05T21:01:26.183Z,11.80
2022-12-05T21:03:54.880Z,11.27
2022-12-05T21:06:31.050Z,11.93
2022-12-05T21:08:59.202Z,12.87
2022-12-05T21:11:29.922Z,11.63
2022-12-05T21:14:00.417Z,12.30
2022-12-05T21:16:29.078Z,11.87
2022-12-05T21:18:56.478Z,14.53
2022-12-05T21:21:25.775Z,14.13
2022-12-05T21:23:57.838Z,11.50
2022-12-05T21:26:28.304Z,12.00
2022-12-05T21:28:56.427Z,11.67
2022-12-05T21:31:30.620Z,11.00
2022-12-05T21:34:02.477Z,11.67
2022-12-05T21:36:31.225Z,10.73
2022-12-05T21:38:59.618Z,11.47
2022-12-05T21:41:27.149Z,13.53
2022-12-05T21:43:55.750Z,11.07
2022-12-05T21:46:24.286Z,11.57
2022-12-05T21:48:51.256Z,13.63
2022-12-05T21:51:18.793Z,12.07
2022-12-05T21:53:45.849Z,14.23
2022-12-05T21:56:15.966Z,11.10
2022-12-05T21:58:44.245Z,11.80
2022-12-05T22:01:17.668Z,11.67
2022-12-05T22:03:45.247Z,11.73
2022-12-05T22:06:15.306Z,11.27
2022-12-05T22:08:42.832Z,10.63
2022-12-05T22:11:15.171Z,12.33
2022-12-05T22:13:42.736Z,13.93
2022-12-05T22:16:10.315Z,14.00
2022-12-05T22:18:37.672Z,14.50
2022-12-05T22:21:06.804Z,13.50
2022-12-05T22:23:34.930Z,12.23
2022-12-05T22:26:10.372Z,12.30
2022-12-05T22:28:38.552Z,10.63
2022-12-05T22:31:08.351Z,9.93
2022-12-05T22:33:36.900Z,11.20
2022-12-05T22:36:09.280Z,10.33
2022-12-05T22:38:39.069Z,10.07
2022-12-05T22:41:14.751Z,11.70
2022-12-05T22:43:43.336Z,11.27
2022-12-05T22:46:17.553Z,10.57
2022-12-05T22:48:48.388Z,11.90
2022-12-05T22:51:16.291Z,12.73
2022-12-05T22:53:43.474Z,13.30
2022-12-05T22:56:13.531Z,12.47
2022-12-05T22:58:41.064Z,12.03
2022-12-05T23:01:22.844Z,12.00
2022-12-05T23:03:53.957Z,12.63
2022-12-05T23:06:21.031Z,13.97
2022-12-05T23:08:49.071Z,12.47
2022-12-05T23:11:17.947Z,11.73
2022-12-05T23:13:45.716Z,12.77
2022-12-05T23:16:23.319Z,12.27
2022-12-05T23:18:53.705Z,11.13
2022-12-05T23:21:26.831Z,12.97
2022-12-05T23:23:56.513Z,12.97
2022-12-05T23:26:26.426Z,12.47
2022-12-05T23:28:53.769Z,11.90
2022-12-05T23:31:22.243Z,11.17
2022-12-05T23:33:51.593Z,11.53
2022-12-05T23:36:19.659Z,11.27
2022-12-05T23:38:47.383Z,11.23
2022-12-05T23:41:19.739Z,10.10
2022-12-05T23:43:48.207Z,11.90
2022-12-05T23:46:17.248Z,10.93
2022-12-05T23:48:44.697Z,10.50
2022-12-05T23:51:15.132Z,11.33
2022-12-05T23:53:43.812Z,11.70
2022-12-05T23:56:15.973Z,10.87
2022-12-05T23:58:44.618Z,11.67
